createdAt,value
2018-06-03T00:01:55.032Z,23.87
2018-06-03T00:04:22.577Z,20.53
2018-06-03T00:06:50.851Z,28.47
2018-06-03T00:09:18.373Z,24.23
2018-06-03T00:11:45.901Z,23.20
2018-06-03T00:14:13.424Z,27.33
2018-06-03T00:16:40.972Z,19.00
2018-06-03T00:19:08.524Z,23.57
2018-06-03T00:21:42.832Z,21.43
2018-06-03T00:24:10.351Z,28.93
2018-06-03T00:26:37.846Z,25.23
2018-06-03T00:29:05.349Z,26.70
2018-06-03T00:31:32.857Z,21.67
2018-06-03T00:34:00.356Z,21.83
2018-06-03T00:36:39.680Z,26.20
2018-06-03T00:39:07.949Z,25.70
2018-06-03T00:41:35.468Z,20.13
2018-06-03T00:44:02.944Z,20.87
2018-06-03T00:46:30.483Z,22.50
2018-06-03T00:48:58.016Z,20.80
2018-06-03T00:51:25.917Z,31.63
2018-06-03T00:53:53.423Z,21.57
2018-06-03T00:56:32.776Z,21.50
2018-06-03T00:59:00.293Z,22.87
2018-06-03T01:01:27.835Z,22.50
2018-06-03T01:03:55.353Z,25.23
2018-06-03T01:06:22.899Z,24.97
2018-06-03T01:08:50.445Z,29.40
2018-06-03T01:11:18.731Z,23.80
2018-06-03T01:13:46.243Z,25.27
2018-06-03T01:16:13.766Z,23.60
2018-06-03T01:18:41.313Z,23.30
2018-06-03T01:21:08.837Z,24.33
2018-06-03T01:23:37.077Z,25.90
2018-06-03T01:26:05.381Z,21.37
2018-06-03T01:28:32.920Z,26.80
2018-06-03T01:31:00.449Z,24.20
2018-06-03T01:33:27.937Z,31.80
2018-06-03T01:35:55.465Z,24.53
2018-06-03T01:38:22.992Z,27.67
2018-06-03T01:40:50.503Z,24.03
2018-06-03T01:43:18.034Z,21.57
2018-06-03T01:45:45.544Z,21.73
2018-06-03T01:48:13.826Z,22.73
2018-06-03T01:50:41.347Z,25.80
2018-06-03T01:53:08.900Z,27.47
2018-06-03T01:55:36.411Z,20.10
2018-06-03T01:58:03.934Z,20.47
2018-06-03T02:00:32.221Z,23.13
2018-06-03T02:03:00.230Z,21.10
2018-06-03T02:05:27.722Z,18.93
2018-06-03T02:07:55.230Z,21.17
2018-06-03T02:10:22.741Z,23.70
2018-06-03T02:12:50.582Z,19.47
2018-06-03T02:15:18.097Z,22.90
2018-06-03T02:17:45.602Z,19.33
2018-06-03T02:20:13.114Z,18.83
2018-06-03T02:22:40.619Z,23.87
2018-06-03T02:25:08.126Z,24.13
2018-06-03T02:27:35.626Z,24.70
2018-06-03T02:30:03.521Z,23.20
2018-06-03T02:32:31.019Z,23.37
2018-06-03T02:34:58.550Z,26.70
2018-06-03T02:37:26.834Z,22.47
2018-06-03T02:39:54.384Z,22.73
2018-06-03T02:42:21.876Z,19.30
2018-06-03T02:44:49.391Z,22.00
2018-06-03T02:47:18.343Z,27.40
2018-06-03T02:49:45.885Z,24.07
2018-06-03T02:52:13.391Z,17.30
2018-06-03T02:54:40.930Z,20.17
2018-06-03T02:57:08.456Z,25.40
2018-06-03T02:59:35.938Z,30.70
2018-06-03T03:02:03.447Z,20.70
2018-06-03T03:04:30.925Z,45.67
2018-06-03T03:06:58.445Z,30.07
2018-06-03T03:09:25.970Z,23.00
2018-06-03T03:11:53.461Z,23.93
2018-06-03T03:14:20.999Z,21.90
2018-06-03T03:16:48.547Z,23.30
2018-06-03T03:19:16.048Z,26.13
2018-06-03T03:24:53.629Z,22.50
2018-06-03T03:27:22.085Z,23.33
2018-06-03T03:29:50.541Z,26.53
2018-06-03T03:32:18.982Z,26.70
2018-06-03T03:34:47.438Z,31.63
2018-06-03T03:37:15.887Z,27.77
2018-06-03T03:39:44.317Z,25.13
2018-06-03T03:42:12.777Z,21.57
2018-06-03T03:44:41.204Z,19.63
2018-06-03T03:47:09.637Z,19.83
2018-06-03T03:49:38.107Z,19.93
2018-06-03T03:52:06.631Z,25.03
2018-06-03T03:54:35.070Z,18.83
2018-06-03T03:57:03.513Z,19.93
2018-06-03T03:59:31.965Z,23.07
2018-06-03T04:02:00.401Z,24.10
2018-06-03T04:04:28.840Z,15.97
2018-06-03T04:06:57.294Z,17.63
2018-06-03T04:09:25.729Z,21.77
2018-06-03T04:11:54.193Z,21.83
2018-06-03T04:14:22.626Z,20.70
2018-06-03T04:16:51.084Z,21.47
2018-06-03T04:19:19.541Z,21.63
2018-06-03T04:21:47.997Z,22.20
2018-06-03T04:24:16.430Z,24.13
2018-06-03T04:26:44.877Z,19.97
2018-06-03T04:29:13.324Z,26.20
2018-06-03T04:31:41.781Z,22.70
2018-06-03T04:34:10.232Z,19.30
2018-06-03T04:36:38.676Z,19.30
2018-06-03T04:39:07.175Z,31.60
2018-06-03T04:41:35.600Z,21.97
2018-06-03T04:44:04.055Z,27.03
2018-06-03T04:46:32.484Z,25.77
2018-06-03T04:49:00.942Z,23.57
2018-06-03T04:51:29.398Z,22.00
2018-06-03T04:53:57.825Z,20.27
2018-06-03T04:56:26.267Z,24.20
2018-06-03T04:58:54.718Z,20.80
2018-06-03T05:01:23.203Z,21.70
2018-06-03T05:03:51.647Z,18.57
2018-06-03T05:06:20.097Z,23.77
2018-06-03T05:08:48.535Z,23.90
2018-06-03T05:11:17.006Z,22.27
2018-06-03T05:13:45.451Z,23.17
2018-06-03T05:16:13.896Z,21.40
2018-06-03T05:18:42.343Z,23.50
2018-06-03T05:21:10.785Z,26.13
2018-06-03T05:23:39.229Z,24.40
2018-06-03T05:26:07.665Z,20.83
2018-06-03T05:28:36.147Z,23.87
2018-06-03T05:31:04.611Z,23.50
2018-06-03T05:33:33.072Z,23.83
2018-06-03T05:36:01.514Z,21.47
2018-06-03T05:38:29.960Z,25.20
2018-06-03T05:40:58.395Z,25.50
2018-06-03T05:43:26.862Z,22.40
2018-06-03T05:45:55.313Z,23.20
2018-06-03T05:48:23.761Z,21.13
2018-06-03T05:50:52.200Z,25.80
2018-06-03T05:53:20.624Z,23.40
2018-06-03T05:55:49.133Z,20.67
2018-06-03T05:58:17.524Z,25.57
2018-06-03T06:00:45.987Z,22.30
2018-06-03T06:03:14.436Z,30.83
2018-06-03T06:05:42.891Z,22.77
2018-06-03T06:08:11.342Z,20.70
2018-06-03T06:10:39.877Z,22.30
2018-06-03T06:13:08.342Z,20.47
2018-06-03T06:15:36.797Z,23.00
2018-06-03T06:18:05.236Z,20.63
2018-06-03T06:20:33.658Z,15.70
2018-06-03T06:23:02.158Z,20.47
2018-06-03T06:25:30.603Z,18.30
2018-06-03T06:27:59.061Z,18.30
2018-06-03T06:30:27.525Z,14.73
2018-06-03T06:32:56.280Z,15.03
2018-06-03T06:35:24.888Z,16.27
2018-06-03T06:37:53.454Z,14.40
2018-06-03T06:40:22.064Z,13.40
2018-06-03T06:42:50.684Z,14.50
2018-06-03T06:45:19.302Z,11.20
2018-06-03T06:47:47.877Z,13.00
2018-06-03T06:50:16.493Z,10.87
2018-06-03T06:52:45.026Z,11.83
2018-06-03T06:55:13.550Z,13.73
2018-06-03T06:58:04.662Z,11.90
2018-06-03T07:00:35.295Z,10.93
2018-06-03T07:03:06.682Z,13.37
2018-06-03T07:05:35.231Z,15.07
2018-06-03T07:08:03.757Z,13.07
2018-06-03T07:10:32.183Z,13.00
2018-06-03T07:13:00.657Z,15.87
2018-06-03T07:15:29.097Z,18.77
2018-06-03T07:17:57.520Z,16.87
2018-06-03T07:20:26.433Z,18.77
2018-06-03T07:22:54.885Z,19.33
2018-06-03T07:25:23.011Z,18.27
2018-06-03T07:27:51.448Z,16.20
2018-06-03T07:30:19.953Z,16.10
2018-06-03T07:32:48.394Z,16.07
2018-06-03T07:35:17.109Z,15.60
2018-06-03T07:37:45.574Z,14.33
2018-06-03T07:40:14.554Z,18.83
2018-06-03T07:42:42.989Z,15.30
2018-06-03T07:45:13.000Z,14.53
2018-06-03T07:47:48.134Z,16.37
2018-06-03T07:56:38.579Z,15.27
2018-06-03T08:22:19.584Z,18.13
2018-06-03T08:24:47.891Z,18.90
2018-06-03T08:27:17.492Z,20.73
2018-06-03T08:29:46.286Z,17.13
2018-06-03T08:32:15.062Z,17.63
2018-06-03T08:34:43.906Z,26.43
2018-06-03T08:37:12.386Z,18.60
2018-06-03T08:39:40.874Z,20.63
2018-06-03T08:42:09.382Z,21.10
2018-06-03T08:44:37.846Z,18.13
2018-06-03T08:47:26.456Z,20.70
2018-06-03T08:49:54.917Z,21.47
2018-06-03T08:52:23.415Z,20.90
2018-06-03T08:54:51.866Z,19.97
2018-06-03T08:57:20.418Z,20.07
2018-06-03T08:59:48.566Z,20.97
2018-06-03T09:02:17.065Z,19.57
2018-06-03T09:04:45.658Z,18.03
2018-06-03T09:07:14.137Z,17.40
2018-06-03T09:09:42.609Z,27.27
2018-06-03T09:12:11.104Z,24.37
2018-06-03T09:14:39.585Z,27.77
2018-06-03T09:17:08.071Z,25.03
2018-06-03T09:19:36.563Z,26.07
2018-06-03T09:22:05.048Z,19.47
2018-06-03T09:24:33.549Z,18.43
2018-06-03T09:27:01.684Z,19.93
2018-06-03T09:29:30.142Z,20.17
2018-06-03T09:31:58.701Z,24.87
2018-06-03T09:34:27.244Z,18.43
2018-06-03T09:37:12.164Z,19.73
2018-06-03T09:39:55.319Z,20.00
2018-06-03T09:45:38.594Z,18.17
2018-06-03T09:51:20.397Z,19.27
2018-06-03T10:08:24.281Z,18.33
2018-06-03T10:31:04.901Z,21.43
2018-06-03T10:33:33.414Z,20.20
2018-06-03T10:36:01.815Z,21.77
2018-06-03T10:38:30.501Z,18.17
2018-06-03T10:40:58.961Z,26.50
2018-06-03T10:43:27.554Z,18.80
2018-06-03T10:45:56.022Z,15.60
2018-06-03T10:48:24.476Z,20.60
2018-06-03T10:50:53.969Z,22.70
2018-06-03T10:53:22.441Z,18.90
2018-06-03T10:55:51.132Z,15.67
2018-06-03T10:58:19.601Z,22.97
2018-06-03T11:00:48.084Z,20.43
2018-06-03T11:03:16.558Z,20.67
2018-06-03T11:05:45.009Z,19.37
2018-06-03T11:08:13.480Z,23.17
2018-06-03T11:10:42.248Z,17.53
2018-06-03T11:13:10.688Z,23.97
2018-06-03T11:15:39.217Z,19.60
2018-06-03T11:18:07.654Z,17.83
2018-06-03T11:20:36.132Z,24.50
2018-06-03T11:23:06.392Z,18.27
2018-06-03T11:25:34.877Z,18.37
2018-06-03T11:28:03.303Z,18.53
2018-06-03T11:30:31.766Z,17.40
2018-06-03T11:33:00.211Z,17.20
2018-06-03T11:35:28.684Z,18.03
2018-06-03T11:37:57.144Z,16.93
2018-06-03T11:40:27.257Z,15.67
2018-06-03T11:42:55.707Z,17.57
2018-06-03T11:45:24.162Z,17.70
2018-06-03T11:47:52.610Z,17.20
2018-06-03T11:50:21.041Z,17.60
2018-06-03T11:52:49.506Z,17.53
2018-06-03T11:55:17.931Z,18.07
2018-06-03T11:58:52.017Z,16.20
2018-06-03T12:01:20.534Z,19.30
2018-06-03T12:03:49.003Z,12.10
2018-06-03T12:06:17.420Z,12.97
2018-06-03T12:08:45.864Z,15.33
2018-06-03T12:11:14.320Z,14.77
2018-06-03T12:13:42.441Z,17.27
2018-06-03T12:16:10.874Z,14.73
2018-06-03T12:18:39.325Z,17.23
2018-06-03T12:21:07.779Z,13.10
2018-06-03T12:23:37.028Z,13.83
2018-06-03T12:26:05.131Z,12.70
2018-06-03T12:28:33.653Z,15.10
2018-06-03T12:31:02.233Z,12.80
2018-06-03T12:33:30.677Z,14.73
2018-06-03T12:35:59.112Z,15.03
2018-06-03T12:38:27.586Z,13.27
2018-06-03T12:41:01.541Z,13.40
2018-06-03T12:43:29.993Z,9.90
2018-06-03T12:45:58.120Z,11.97
2018-06-03T12:48:26.571Z,13.83
2018-06-03T12:50:55.022Z,11.63
2018-06-03T12:53:23.532Z,14.03
2018-06-03T12:55:51.986Z,13.37
2018-06-03T12:58:20.414Z,9.27
2018-06-03T13:00:48.911Z,9.00
2018-06-03T13:03:17.358Z,14.47
2018-06-03T13:05:45.782Z,10.53
2018-06-03T13:08:14.257Z,13.30
2018-06-03T13:10:42.685Z,10.70
2018-06-03T13:13:11.142Z,12.87
2018-06-03T13:15:39.552Z,12.23
2018-06-03T13:18:08.043Z,11.53
2018-06-03T13:20:36.464Z,14.40
2018-06-03T13:23:04.897Z,11.93
2018-06-03T13:25:33.332Z,14.50
2018-06-03T13:28:01.764Z,12.50
2018-06-03T13:30:30.251Z,12.50
2018-06-03T13:32:58.665Z,9.50
2018-06-03T13:35:27.120Z,10.07
2018-06-03T13:37:55.572Z,8.43
2018-06-03T13:40:24.009Z,10.30
2018-06-03T13:42:52.449Z,8.20
2018-06-03T13:45:20.908Z,9.50
2018-06-03T13:47:49.351Z,10.27
2018-06-03T13:50:17.770Z,15.20
2018-06-03T13:52:45.891Z,11.40
2018-06-03T13:55:14.313Z,11.50
2018-06-03T13:57:42.772Z,11.57
2018-06-03T14:00:11.206Z,10.33
2018-06-03T14:02:39.637Z,12.60
2018-06-03T14:05:08.113Z,12.77
2018-06-03T14:07:36.548Z,11.47
2018-06-03T14:13:07.097Z,10.13
2018-06-03T14:15:35.664Z,12.93
2018-06-03T14:18:04.188Z,17.93
2018-06-03T14:20:32.678Z,11.77
2018-06-03T14:23:01.201Z,13.33
2018-06-03T14:25:29.674Z,10.07
2018-06-03T14:27:58.164Z,8.93
2018-06-03T14:30:26.644Z,10.40
2018-06-03T14:32:55.198Z,10.33
2018-06-03T14:35:24.350Z,9.23
2018-06-03T14:37:54.911Z,9.17
2018-06-03T14:40:23.409Z,10.93
2018-06-03T14:42:51.977Z,10.60
2018-06-03T14:45:20.473Z,10.17
2018-06-03T14:47:48.948Z,11.40
2018-06-03T14:50:17.485Z,9.00
2018-06-03T14:52:45.948Z,9.60
2018-06-03T14:55:14.493Z,9.73
2018-06-03T14:57:42.950Z,10.10
2018-06-03T15:00:11.357Z,9.80
2018-06-03T15:02:39.821Z,10.70
2018-06-03T15:05:08.273Z,10.07
2018-06-03T15:07:36.748Z,8.07
2018-06-03T15:10:05.228Z,8.87
2018-06-03T15:12:33.704Z,9.20
2018-06-03T15:15:02.189Z,10.40
2018-06-03T15:17:30.637Z,11.07
2018-06-03T15:19:59.145Z,8.73
2018-06-03T15:22:27.723Z,9.60
2018-06-03T15:24:56.296Z,8.70
2018-06-03T15:27:24.761Z,8.60
2018-06-03T15:29:53.263Z,10.23
2018-06-03T15:32:21.802Z,8.63
2018-06-03T15:34:50.282Z,9.27
2018-06-03T15:37:18.817Z,22.50
2018-06-03T15:39:47.299Z,10.23
2018-06-03T15:42:15.931Z,10.43
2018-06-03T15:44:44.466Z,11.77
2018-06-03T15:47:12.961Z,10.33
2018-06-03T15:49:41.118Z,10.07
2018-06-03T15:52:09.604Z,8.80
2018-06-03T15:54:38.123Z,9.33
2018-06-03T15:57:06.625Z,8.20
2018-06-03T15:59:35.132Z,8.60
2018-06-03T16:02:03.669Z,9.97
2018-06-03T16:04:32.245Z,8.87
2018-06-03T16:07:00.762Z,10.50
2018-06-03T16:09:29.292Z,8.37
2018-06-03T16:11:57.931Z,8.50
2018-06-03T16:14:26.406Z,8.10
2018-06-03T16:16:54.898Z,9.83
2018-06-03T16:19:23.357Z,12.47
2018-06-03T16:21:51.980Z,10.30
2018-06-03T16:24:20.481Z,12.07
2018-06-03T16:26:48.898Z,9.90
2018-06-03T16:29:17.408Z,15.63
2018-06-03T16:31:45.961Z,13.37
2018-06-03T16:34:14.437Z,14.67
2018-06-03T16:36:47.590Z,15.37
2018-06-03T16:39:16.195Z,13.30
2018-06-03T16:41:44.746Z,13.23
2018-06-03T16:44:13.241Z,13.27
2018-06-03T16:46:41.748Z,11.03
2018-06-03T16:49:10.177Z,12.17
2018-06-03T16:51:38.638Z,11.80
2018-06-03T16:54:07.158Z,12.10
2018-06-03T16:56:35.649Z,21.80
2018-06-03T16:59:04.103Z,14.63
2018-06-03T17:01:32.582Z,16.37
2018-06-03T17:04:01.049Z,13.67
2018-06-03T17:06:29.548Z,20.20
2018-06-03T17:08:58.045Z,17.13
2018-06-03T17:11:26.522Z,12.73
2018-06-03T17:13:55.017Z,15.87
2018-06-03T17:16:23.644Z,19.00
2018-06-03T17:18:52.160Z,16.63
2018-06-03T17:21:20.675Z,15.30
2018-06-03T17:23:49.187Z,16.40
2018-06-03T17:26:17.689Z,18.03
2018-06-03T17:28:46.185Z,17.77
2018-06-03T17:31:14.691Z,16.13
2018-06-03T17:33:43.163Z,17.97
2018-06-03T17:36:11.640Z,14.37
2018-06-03T17:38:40.174Z,20.63
2018-06-03T17:41:08.684Z,17.33
2018-06-03T17:43:37.141Z,15.57
2018-06-03T17:46:05.754Z,19.50
2018-06-03T17:48:34.263Z,14.07
2018-06-03T17:51:02.801Z,17.00
2018-06-03T17:53:31.303Z,17.63
2018-06-03T17:56:21.652Z,20.63
2018-06-03T17:58:50.097Z,17.17
2018-06-03T18:01:18.555Z,17.83
2018-06-03T18:03:46.992Z,17.53
2018-06-03T18:06:15.445Z,14.77
2018-06-03T18:08:43.886Z,22.20
2018-06-03T18:11:12.398Z,16.93
2018-06-03T18:13:40.935Z,18.17
2018-06-03T18:16:09.364Z,23.13
2018-06-03T18:18:37.855Z,17.87
2018-06-03T18:21:06.313Z,19.40
2018-06-03T18:23:34.818Z,18.80
2018-06-03T18:26:03.245Z,19.43
2018-06-03T18:28:31.702Z,15.00
2018-06-03T18:31:00.182Z,18.17
2018-06-03T18:33:28.795Z,17.23
2018-06-03T18:35:57.247Z,17.67
2018-06-03T18:38:25.697Z,18.13
2018-06-03T18:40:54.232Z,18.10
2018-06-03T18:43:22.676Z,22.13
2018-06-03T18:45:51.117Z,20.97
2018-06-03T18:48:19.560Z,22.80
2018-06-03T18:50:48.011Z,20.13
2018-06-03T18:53:16.478Z,23.03
2018-06-03T18:55:45.034Z,22.90
2018-06-03T18:58:13.506Z,24.57
2018-06-03T19:00:41.950Z,23.17
2018-06-03T19:03:10.405Z,19.70
2018-06-03T19:05:38.884Z,24.10
2018-06-03T19:08:07.402Z,21.30
2018-06-03T19:10:35.864Z,22.97
2018-06-03T19:13:04.449Z,24.20
2018-06-03T19:15:32.920Z,24.20
2018-06-03T19:18:01.377Z,23.50
2018-06-03T19:20:29.811Z,24.30
2018-06-03T19:22:58.284Z,29.53
2018-06-03T19:25:26.713Z,19.40
2018-06-03T19:27:55.140Z,19.53
2018-06-03T19:30:23.579Z,19.67
2018-06-03T19:32:52.114Z,20.43
2018-06-03T19:35:20.543Z,20.03
2018-06-03T19:37:48.976Z,18.33
2018-06-03T19:40:17.441Z,18.60
2018-06-03T19:42:45.923Z,18.70
2018-06-03T19:45:14.404Z,19.63
2018-06-03T19:47:42.878Z,20.87
2018-06-03T19:50:11.374Z,19.07
2018-06-03T19:52:39.813Z,23.00
2018-06-03T19:55:08.236Z,18.40
2018-06-03T19:57:36.360Z,22.47
2018-06-03T20:00:04.842Z,25.83
2018-06-03T20:02:33.287Z,28.80
2018-06-03T20:05:01.749Z,28.53
2018-06-03T20:07:30.202Z,25.70
2018-06-03T20:09:58.633Z,23.20
2018-06-03T20:12:27.045Z,23.60
2018-06-03T20:14:55.509Z,23.00
2018-06-03T20:17:23.982Z,23.97
2018-06-03T20:19:55.940Z,28.43
2018-06-03T20:22:30.856Z,25.90
2018-06-03T20:24:59.419Z,25.20
2018-06-03T20:27:27.856Z,21.87
2018-06-03T20:29:56.293Z,23.87
2018-06-03T20:32:24.738Z,27.90
2018-06-03T20:34:53.161Z,30.40
2018-06-03T20:37:21.645Z,30.20
2018-06-03T20:39:50.070Z,29.70
2018-06-03T20:42:18.538Z,30.93
2018-06-03T20:44:46.989Z,26.70
2018-06-03T20:47:15.434Z,24.87
2018-06-03T20:49:43.884Z,26.50
2018-06-03T20:52:12.309Z,25.90
2018-06-03T20:54:40.764Z,25.83
2018-06-03T20:57:09.348Z,27.17
2018-06-03T20:59:37.808Z,29.43
2018-06-03T21:02:06.254Z,27.37
2018-06-03T21:04:34.693Z,28.50
2018-06-03T21:07:03.164Z,27.03
2018-06-03T21:09:31.620Z,25.20
2018-06-03T21:12:00.076Z,24.17
2018-06-03T21:14:28.501Z,26.73
2018-06-03T21:16:57.001Z,27.73
2018-06-03T21:19:25.440Z,34.20
2018-06-03T21:21:53.861Z,37.40
2018-06-03T21:24:22.305Z,32.30
2018-06-03T21:26:50.736Z,31.53
2018-06-03T21:29:19.183Z,34.27
2018-06-03T21:31:47.615Z,32.10
2018-06-03T21:34:16.065Z,32.60
2018-06-03T21:36:44.484Z,29.07
2018-06-03T21:39:12.937Z,34.67
2018-06-03T21:41:41.361Z,31.90
2018-06-03T21:44:09.796Z,26.93
2018-06-03T21:46:38.260Z,37.80
2018-06-03T21:49:06.703Z,37.63
2018-06-03T21:51:35.155Z,40.20
2018-06-03T21:54:03.585Z,39.33
2018-06-03T21:56:32.033Z,28.77
2018-06-03T21:59:00.450Z,27.67
2018-06-03T22:01:28.910Z,33.50
2018-06-03T22:03:57.335Z,33.47
2018-06-03T22:06:25.784Z,30.07
2018-06-03T22:08:54.229Z,33.53
2018-06-03T22:11:22.685Z,33.00
2018-06-03T22:13:51.145Z,37.00
2018-06-03T22:16:19.606Z,36.70
2018-06-03T22:18:48.041Z,34.77
2018-06-03T22:21:16.466Z,35.83
2018-06-03T22:23:44.922Z,36.83
2018-06-03T22:26:13.367Z,31.40
2018-06-03T22:28:41.794Z,36.07
2018-06-03T22:31:10.231Z,32.60
2018-06-03T22:33:38.662Z,37.23
2018-06-03T22:36:07.114Z,39.77
2018-06-03T22:38:35.536Z,41.23
2018-06-03T22:41:03.977Z,36.17
2018-06-03T22:43:32.403Z,38.70
2018-06-03T22:46:00.865Z,37.20
2018-06-03T22:48:29.281Z,48.90
2018-06-03T22:50:57.713Z,45.40
2018-06-03T22:53:26.152Z,42.80
2018-06-03T22:55:54.603Z,44.97
2018-06-03T22:58:23.061Z,53.43
2018-06-03T23:00:51.850Z,49.47
2018-06-03T23:03:20.294Z,43.50
2018-06-03T23:05:48.730Z,42.77
2018-06-03T23:08:17.188Z,41.97
2018-06-03T23:10:45.606Z,42.43
2018-06-03T23:13:14.065Z,44.13
2018-06-03T23:15:42.481Z,41.43
2018-06-03T23:18:10.917Z,42.27
2018-06-03T23:20:39.373Z,41.90
2018-06-03T23:23:07.829Z,42.10
2018-06-03T23:25:36.251Z,40.33
2018-06-03T23:28:04.804Z,36.17
2018-06-03T23:30:33.260Z,42.37
2018-06-03T23:33:01.690Z,39.23
2018-06-03T23:35:30.161Z,40.10
2018-06-03T23:37:58.599Z,45.83
2018-06-03T23:40:27.060Z,42.57
2018-06-03T23:42:55.510Z,39.87
2018-06-03T23:45:23.956Z,39.77
2018-06-03T23:47:52.389Z,38.93
2018-06-03T23:50:20.816Z,43.23
2018-06-03T23:52:49.242Z,40.30
2018-06-03T23:55:17.683Z,41.67
2018-06-03T23:57:46.125Z,41.13
